Time;durP1;ratioP1;P1;durP2;ratioP2;P2;SDS_P1;SDS_P2;PMS_P1;PMS_P2;Temp;Humidity;BMP_temperature;BMP_pressure;BME280_temperature;BME280_humidity;BME280_pressure;Samples;Min_cycle;Max_cycle;Signal;HPM_P1;HPM_P2
2023/05/31 00:02:03;;;;;;;11.73;4.25;;;10.40;99.90;;;;;;5058913;28;20043;-76
2023/05/31 00:04:29;;;;;;;10.77;4.57;;;10.40;99.90;;;;;;5040654;28;20075;-77
2023/05/31 00:06:54;;;;;;;10.02;4.53;;;10.30;99.90;;;;;;5029188;28;20076;-76
2023/05/31 00:09:20;;;;;;;11.32;4.80;;;10.30;99.90;;;;;;5045150;28;20044;-76
2023/05/31 00:11:46;;;;;;;10.75;4.55;;;10.30;99.90;;;;;;5059718;28;20041;-76
2023/05/31 00:14:11;;;;;;;12.40;4.68;;;10.20;99.90;;;;;;5032525;28;20037;-76
2023/05/31 00:16:37;;;;;;;12.80;4.88;;;10.20;99.90;;;;;;5032673;28;20491;-76
2023/05/31 00:19:03;;;;;;;11.52;5.07;;;10.20;99.90;;;;;;5048556;28;20052;-76
2023/05/31 00:21:29;;;;;;;12.02;4.78;;;10.20;99.90;;;;;;5049199;28;20040;-76
2023/05/31 00:23:55;;;;;;;11.13;4.85;;;10.20;99.90;;;;;;5031571;28;20053;-76
2023/05/31 00:26:21;;;;;;;9.90;4.53;;;10.20;99.90;;;;;;5060436;28;20327;-76
2023/05/31 00:28:47;;;;;;;12.70;5.30;;;10.20;99.90;;;;;;5045718;28;20053;-77
2023/05/31 00:31:13;;;;;;;14.77;5.05;;;10.10;99.90;;;;;;5028920;28;20095;-77
2023/05/31 00:33:39;;;;;;;11.30;5.25;;;10.10;99.90;;;;;;5048888;28;20041;-76
2023/05/31 00:36:05;;;;;;;13.32;5.60;;;10.10;99.90;;;;;;5048316;28;20041;-76
2023/05/31 00:38:30;;;;;;;11.30;5.15;;;10.10;99.90;;;;;;5054110;28;20040;-76
2023/05/31 00:40:56;;;;;;;11.10;5.35;;;10.00;99.90;;;;;;5032820;28;20098;-76
2023/05/31 00:43:22;;;;;;;11.65;5.47;;;10.00;99.90;;;;;;5043307;28;20064;-76
2023/05/31 00:45:48;;;;;;;10.13;5.03;;;10.00;99.90;;;;;;5051579;28;20085;-76
2023/05/31 00:48:14;;;;;;;10.88;5.07;;;10.00;99.90;;;;;;5067935;28;20521;-76
2023/05/31 00:50:40;;;;;;;12.02;5.15;;;10.00;99.90;;;;;;5038698;28;20040;-76
2023/05/31 00:53:07;;;;;;;9.57;5.07;;;10.00;99.90;;;;;;5047701;28;20041;-76
2023/05/31 00:55:33;;;;;;;11.15;5.45;;;10.00;99.90;;;;;;5048054;28;20040;-76
2023/05/31 00:57:59;;;;;;;12.63;4.85;;;9.90;99.90;;;;;;5047981;28;20041;-76
2023/05/31 01:00:24;;;;;;;11.27;5.07;;;9.90;99.90;;;;;;5037829;28;20183;-77
2023/05/31 01:02:51;;;;;;;11.23;4.68;;;9.90;99.90;;;;;;5034568;28;20524;-76
2023/05/31 01:05:17;;;;;;;11.52;5.07;;;9.80;99.90;;;;;;5058253;28;20041;-76
2023/05/31 01:07:44;;;;;;;10.40;4.90;;;9.80;99.90;;;;;;5019443;28;20061;-76
2023/05/31 01:10:13;;;;;;;12.55;5.43;;;9.70;99.90;;;;;;5041669;28;20041;-76
2023/05/31 01:13:05;;;;;;;10.95;4.97;;;9.70;99.90;;;;;;5053285;28;20040;-76
2023/05/31 01:15:52;;;;;;;12.85;5.38;;;9.70;99.90;;;;;;5063574;28;20041;-77
2023/05/31 01:18:36;;;;;;;11.10;4.93;;;9.60;99.90;;;;;;5071704;28;20135;-77
2023/05/31 01:21:03;;;;;;;10.90;5.05;;;9.60;99.90;;;;;;5052924;28;20045;-76
2023/05/31 01:23:38;;;;;;;11.30;5.28;;;9.50;99.90;;;;;;5034776;28;20047;-76
2023/05/31 01:26:41;;;;;;;9.95;4.68;;;9.50;99.90;;;;;;5035343;28;20063;-77
2023/05/31 01:29:13;;;;;;;11.60;4.80;;;9.50;99.90;;;;;;5051173;28;20057;-77
2023/05/31 01:31:41;;;;;;;10.48;5.22;;;9.50;99.90;;;;;;5056886;28;20036;-77
2023/05/31 01:34:08;;;;;;;10.45;4.97;;;9.40;99.90;;;;;;5061306;28;20116;-76
2023/05/31 01:36:33;;;;;;;10.48;4.72;;;9.40;99.90;;;;;;5037598;28;20102;-77
2023/05/31 01:39:01;;;;;;;11.07;5.22;;;9.40;99.90;;;;;;5069636;28;20044;-76
2023/05/31 01:41:29;;;;;;;11.05;5.00;;;9.40;99.90;;;;;;5037053;28;20082;-76
2023/05/31 01:43:56;;;;;;;11.38;4.65;;;9.40;99.90;;;;;;5045626;28;20120;-77
2023/05/31 01:46:22;;;;;;;10.77;4.82;;;9.40;99.90;;;;;;5035535;28;20055;-76
2023/05/31 01:48:48;;;;;;;11.40;4.78;;;9.40;99.90;;;;;;5069258;28;20094;-76
2023/05/31 01:51:15;;;;;;;11.38;5.18;;;9.40;99.90;;;;;;5053464;28;20407;-77
2023/05/31 01:53:42;;;;;;;11.68;4.68;;;9.40;99.90;;;;;;5032404;28;20491;-77
2023/05/31 01:56:12;;;;;;;12.32;5.32;;;9.40;99.90;;;;;;5052362;28;20041;-77
2023/05/31 01:58:44;;;;;;;13.52;5.40;;;9.40;99.90;;;;;;5067670;28;20158;-77
2023/05/31 02:01:11;;;;;;;15.20;5.35;;;9.40;99.90;;;;;;5056797;28;20040;-76
2023/05/31 02:03:38;;;;;;;13.40;5.78;;;9.40;99.90;;;;;;5063868;28;20136;-77
2023/05/31 02:06:04;;;;;;;13.63;5.82;;;9.50;99.90;;;;;;5054846;28;20037;-76
2023/05/31 02:08:30;;;;;;;12.77;5.80;;;9.50;99.90;;;;;;5045512;28;20040;-76
2023/05/31 02:10:56;;;;;;;17.45;6.53;;;9.50;99.90;;;;;;5062962;28;20090;-76
2023/05/31 02:13:28;;;;;;;13.40;5.80;;;9.50;99.90;;;;;;5068024;28;20490;-76
2023/05/31 02:15:57;;;;;;;12.83;6.27;;;9.60;99.90;;;;;;5050207;28;20569;-77
2023/05/31 02:18:26;;;;;;;15.75;5.85;;;9.50;99.90;;;;;;5042391;28;20041;-76
2023/05/31 02:20:52;;;;;;;14.13;5.70;;;9.50;99.90;;;;;;5022108;28;20041;-76
2023/05/31 02:23:19;;;;;;;14.18;6.10;;;9.60;99.90;;;;;;5051346;28;20033;-76
2023/05/31 02:25:46;;;;;;;16.85;6.97;;;9.60;99.90;;;;;;5057221;28;20072;-76
2023/05/31 02:28:12;;;;;;;14.90;6.47;;;9.60;99.90;;;;;;5063954;28;20056;-77
2023/05/31 02:30:38;;;;;;;17.77;6.50;;;9.60;99.90;;;;;;5062892;28;21832;-77
2023/05/31 02:33:04;;;;;;;16.58;6.57;;;9.70;99.90;;;;;;5045366;28;20037;-77
2023/05/31 02:35:30;;;;;;;15.32;6.00;;;9.70;99.90;;;;;;5051377;28;20433;-77
2023/05/31 02:37:56;;;;;;;18.05;6.60;;;9.70;99.90;;;;;;5022451;28;20094;-76
2023/05/31 02:40:21;;;;;;;16.73;6.90;;;9.70;99.90;;;;;;5034025;28;20154;-76
2023/05/31 02:42:47;;;;;;;15.35;7.38;;;9.70;99.90;;;;;;5050037;28;20036;-77
2023/05/31 02:45:13;;;;;;;15.05;7.00;;;9.70;99.90;;;;;;5052598;28;20040;-77
2023/05/31 02:47:39;;;;;;;17.10;7.18;;;9.80;99.90;;;;;;5054610;28;20051;-77
2023/05/31 02:50:07;;;;;;;20.48;7.63;;;9.70;99.90;;;;;;5041662;28;20438;-77
2023/05/31 02:52:34;;;;;;;19.67;8.10;;;9.80;99.90;;;;;;5037202;28;20045;-77
2023/05/31 02:54:59;;;;;;;18.05;7.43;;;9.80;99.90;;;;;;5053529;28;20040;-76
2023/05/31 02:57:25;;;;;;;16.55;6.70;;;9.80;99.90;;;;;;5052815;28;20098;-77
2023/05/31 02:59:55;;;;;;;18.75;7.57;;;9.80;99.90;;;;;;5053791;28;20041;-77
2023/05/31 03:02:21;;;;;;;17.67;7.38;;;9.80;99.90;;;;;;5034134;28;20110;-76
2023/05/31 03:04:48;;;;;;;15.45;7.00;;;9.80;99.90;;;;;;5049733;28;20507;-77
2023/05/31 03:07:14;;;;;;;18.73;6.70;;;9.70;99.90;;;;;;5022249;28;20048;-76
2023/05/31 03:09:40;;;;;;;22.05;7.32;;;9.70;99.90;;;;;;5017195;28;20144;-77
2023/05/31 03:12:06;;;;;;;18.85;8.02;;;9.70;99.90;;;;;;5033622;28;20558;-77
2023/05/31 03:14:32;;;;;;;18.25;7.35;;;9.70;99.90;;;;;;5050328;28;20453;-76
2023/05/31 03:16:58;;;;;;;17.75;7.05;;;9.70;99.90;;;;;;5049803;28;20057;-76
2023/05/31 03:19:24;;;;;;;16.33;7.22;;;9.70;99.90;;;;;;5069873;28;20371;-76
2023/05/31 03:21:49;;;;;;;16.40;6.65;;;9.70;99.90;;;;;;5037050;28;20603;-76
2023/05/31 03:24:15;;;;;;;16.83;6.60;;;9.70;99.90;;;;;;5036284;28;20042;-77
2023/05/31 03:26:41;;;;;;;15.75;7.32;;;9.70;99.90;;;;;;5036883;28;20244;-77
2023/05/31 03:29:06;;;;;;;16.10;6.60;;;9.70;99.90;;;;;;5053222;28;20088;-77
2023/05/31 03:31:32;;;;;;;16.90;6.70;;;9.80;99.90;;;;;;5047424;28;20040;-76
2023/05/31 03:33:59;;;;;;;17.77;6.88;;;9.70;99.90;;;;;;5047829;28;20048;-77
2023/05/31 03:36:24;;;;;;;17.23;6.43;;;9.70;99.90;;;;;;5065029;28;20116;-76
2023/05/31 03:38:50;;;;;;;17.23;6.70;;;9.70;99.90;;;;;;5055108;28;20128;-76
2023/05/31 03:41:16;;;;;;;15.68;6.18;;;9.70;99.90;;;;;;5049323;28;20032;-76
2023/05/31 03:43:42;;;;;;;15.50;6.88;;;9.70;99.90;;;;;;5060949;28;20450;-76
2023/05/31 03:46:08;;;;;;;17.67;6.97;;;9.70;99.90;;;;;;5034407;28;20037;-77
2023/05/31 03:48:33;;;;;;;15.40;6.40;;;9.70;99.90;;;;;;5040498;28;20045;-76
2023/05/31 03:50:59;;;;;;;14.75;6.45;;;9.70;99.90;;;;;;5052188;28;20063;-76
2023/05/31 03:53:25;;;;;;;20.88;7.03;;;9.70;99.90;;;;;;5036340;28;20028;-76
2023/05/31 03:55:51;;;;;;;13.65;6.50;;;9.80;99.90;;;;;;5062603;28;20460;-76
2023/05/31 03:58:17;;;;;;;15.35;7.10;;;9.80;99.90;;;;;;5039020;28;20067;-76
2023/05/31 04:00:43;;;;;;;17.35;7.03;;;9.80;99.90;;;;;;5068593;28;20108;-76
2023/05/31 04:03:11;;;;;;;14.35;6.78;;;9.90;99.90;;;;;;5062868;28;20112;-76
2023/05/31 04:05:38;;;;;;;13.43;6.70;;;9.90;99.90;;;;;;5015981;28;20112;-76
2023/05/31 04:08:04;;;;;;;15.48;6.93;;;10.00;99.90;;;;;;5050465;28;20041;-76
2023/05/31 04:10:31;;;;;;;18.52;7.72;;;10.10;99.90;;;;;;5049099;28;20040;-76
2023/05/31 04:12:57;;;;;;;14.55;7.18;;;10.10;99.90;;;;;;5032493;28;20033;-76
2023/05/31 04:15:22;;;;;;;14.98;7.65;;;10.60;99.90;;;;;;5031826;28;20451;-76
2023/05/31 04:17:48;;;;;;;15.23;7.35;;;10.20;99.90;;;;;;5026628;28;20147;-76
2023/05/31 04:20:16;;;;;;;16.70;7.47;;;10.30;99.90;;;;;;5051682;28;20044;-77
2023/05/31 04:22:42;;;;;;;17.13;7.57;;;10.30;99.90;;;;;;5052476;28;20086;-76
2023/05/31 04:25:09;;;;;;;18.58;7.03;;;10.40;99.90;;;;;;5032767;28;20072;-76
2023/05/31 04:27:38;;;;;;;16.13;7.30;;;10.50;99.90;;;;;;5049726;28;20053;-76
2023/05/31 04:30:05;;;;;;;19.85;7.53;;;10.60;99.90;;;;;;5048012;28;20068;-76
2023/05/31 04:32:34;;;;;;;17.67;6.60;;;10.70;99.90;;;;;;5015712;28;20056;-76
2023/05/31 04:35:04;;;;;;;16.85;7.35;;;10.70;99.90;;;;;;5048134;28;20063;-76
2023/05/31 04:37:30;;;;;;;19.27;8.00;;;10.90;99.90;;;;;;5032224;28;20045;-77
2023/05/31 04:39:56;;;;;;;17.55;7.22;;;10.90;99.90;;;;;;5029906;28;20033;-77
2023/05/31 04:42:26;;;;;;;16.52;7.45;;;11.00;99.90;;;;;;5068279;28;20192;-76
2023/05/31 04:45:01;;;;;;;20.40;7.43;;;11.00;99.90;;;;;;5051621;28;21317;-76
2023/05/31 04:47:31;;;;;;;17.92;7.90;;;11.10;99.90;;;;;;5052071;28;20522;-76
2023/05/31 04:49:57;;;;;;;17.60;7.20;;;11.20;99.90;;;;;;5029763;28;20033;-76
2023/05/31 04:52:26;;;;;;;17.23;7.53;;;11.20;99.90;;;;;;5058274;28;20037;-76
2023/05/31 04:54:55;;;;;;;19.95;7.00;;;11.30;99.90;;;;;;5048933;28;20044;-76
2023/05/31 04:57:22;;;;;;;17.75;7.97;;;11.40;99.90;;;;;;5039337;28;20049;-76
2023/05/31 04:59:48;;;;;;;16.20;7.47;;;11.40;99.90;;;;;;5040929;28;20407;-76
2023/05/31 05:02:14;;;;;;;16.35;7.10;;;11.50;99.90;;;;;;5058863;28;20044;-76
2023/05/31 05:04:40;;;;;;;14.18;6.95;;;11.60;99.90;;;;;;5056648;28;20056;-76
2023/05/31 05:07:06;;;;;;;18.25;6.85;;;11.70;99.90;;;;;;5043045;28;20338;-76
2023/05/31 05:09:32;;;;;;;16.33;6.90;;;11.80;99.90;;;;;;5054530;28;20036;-76
2023/05/31 05:11:58;;;;;;;16.63;7.40;;;11.80;99.90;;;;;;5046626;28;20343;-76
2023/05/31 05:14:23;;;;;;;16.25;7.20;;;11.90;99.90;;;;;;5064270;28;20174;-76
2023/05/31 05:16:49;;;;;;;15.35;7.13;;;12.00;99.90;;;;;;5057817;28;20143;-76
2023/05/31 05:19:15;;;;;;;16.88;7.22;;;12.10;99.90;;;;;;5031452;28;20040;-76
2023/05/31 05:21:41;;;;;;;15.65;7.22;;;12.20;99.90;;;;;;5053375;28;20048;-75
2023/05/31 05:24:06;;;;;;;17.02;6.80;;;12.30;99.90;;;;;;5057902;28;20044;-76
2023/05/31 05:26:33;;;;;;;14.25;6.93;;;12.40;99.90;;;;;;5035328;28;20276;-76
2023/05/31 05:28:59;;;;;;;16.13;6.82;;;12.50;99.90;;;;;;5052801;28;20049;-76
2023/05/31 05:31:24;;;;;;;15.82;7.18;;;12.50;99.90;;;;;;5059141;28;20055;-76
2023/05/31 05:33:50;;;;;;;15.20;7.05;;;12.60;99.90;;;;;;5030906;28;20053;-76
2023/05/31 05:36:16;;;;;;;16.45;7.45;;;12.70;99.90;;;;;;5046733;28;20407;-76
2023/05/31 05:38:42;;;;;;;17.58;7.43;;;12.80;99.90;;;;;;5025668;28;20121;-76
2023/05/31 05:41:12;;;;;;;18.10;6.95;;;12.80;99.90;;;;;;5030141;28;20495;-76
2023/05/31 05:43:40;;;;;;;16.88;7.35;;;13.00;99.90;;;;;;5044060;28;20506;-76
2023/05/31 05:46:06;;;;;;;16.73;6.50;;;13.10;99.90;;;;;;5031259;28;20287;-76
2023/05/31 05:48:33;;;;;;;14.40;6.80;;;13.20;99.90;;;;;;5030880;28;20299;-76
2023/05/31 05:51:00;;;;;;;15.60;6.70;;;13.40;99.90;;;;;;5058802;28;20135;-76
2023/05/31 05:53:25;;;;;;;15.95;6.65;;;13.50;99.90;;;;;;5071091;28;20044;-76
2023/05/31 05:55:52;;;;;;;16.05;6.10;;;13.50;99.90;;;;;;5071531;28;20117;-76
2023/05/31 05:58:18;;;;;;;15.05;6.13;;;13.60;99.90;;;;;;5071113;28;20106;-76
2023/05/31 06:00:48;;;;;;;16.75;6.95;;;13.70;99.90;;;;;;5045049;28;20413;-76
2023/05/31 06:03:16;;;;;;;15.95;6.20;;;13.80;99.90;;;;;;5050614;28;20048;-76
2023/05/31 06:05:42;;;;;;;16.55;5.63;;;13.90;99.90;;;;;;5034655;28;20036;-76
2023/05/31 06:08:10;;;;;;;15.23;5.90;;;14.00;99.90;;;;;;5034035;28;20051;-76
2023/05/31 06:10:36;;;;;;;14.25;5.47;;;14.10;99.90;;;;;;5051503;28;20120;-76
2023/05/31 06:13:02;;;;;;;14.80;5.75;;;14.10;99.90;;;;;;5035068;28;20044;-76
2023/05/31 06:15:28;;;;;;;14.88;5.78;;;14.20;99.90;;;;;;5034657;28;20045;-76
2023/05/31 06:17:54;;;;;;;12.93;5.07;;;14.30;99.90;;;;;;5050875;28;20418;-76
2023/05/31 06:20:21;;;;;;;11.73;4.63;;;14.40;99.90;;;;;;5034198;28;20048;-76
2023/05/31 06:22:47;;;;;;;13.70;4.63;;;14.50;99.90;;;;;;5034744;28;20498;-76
2023/05/31 06:25:13;;;;;;;12.60;4.43;;;14.60;99.90;;;;;;5033738;28;20071;-76
2023/05/31 06:27:39;;;;;;;12.35;4.85;;;14.80;99.90;;;;;;5034415;28;20443;-76
2023/05/31 06:30:05;;;;;;;14.55;4.30;;;14.90;99.90;;;;;;5049968;28;20467;-76
2023/05/31 06:32:31;;;;;;;12.43;4.25;;;14.90;99.90;;;;;;5038584;28;20064;-76
2023/05/31 06:34:57;;;;;;;14.13;4.72;;;15.00;99.90;;;;;;5053694;28;20075;-76
2023/05/31 06:37:23;;;;;;;13.15;3.80;;;15.10;99.90;;;;;;5070600;28;20050;-76
2023/05/31 06:39:49;;;;;;;11.18;4.13;;;15.20;99.90;;;;;;5069844;28;20045;-76
2023/05/31 06:42:15;;;;;;;9.85;3.95;;;15.30;99.90;;;;;;5054051;28;20657;-76
2023/05/31 06:44:42;;;;;;;12.40;3.72;;;15.30;99.90;;;;;;5035746;28;20040;-75
2023/05/31 06:47:08;;;;;;;15.40;4.15;;;15.40;99.90;;;;;;5053381;28;20032;-76
2023/05/31 06:49:34;;;;;;;14.57;4.32;;;15.40;99.90;;;;;;5053338;28;20465;-76
2023/05/31 06:52:01;;;;;;;11.98;3.80;;;15.50;99.90;;;;;;5053581;28;20036;-76
2023/05/31 06:54:27;;;;;;;12.77;4.30;;;15.50;99.90;;;;;;5030863;28;20457;-76
2023/05/31 06:56:53;;;;;;;12.07;3.72;;;15.60;99.90;;;;;;5017018;28;20049;-76
2023/05/31 06:59:19;;;;;;;11.23;3.53;;;15.70;99.90;;;;;;5065547;28;20079;-76
2023/05/31 07:01:45;;;;;;;9.15;3.20;;;15.80;99.90;;;;;;5069802;28;20076;-76
2023/05/31 07:04:11;;;;;;;11.38;3.25;;;15.90;99.90;;;;;;5059024;28;20106;-76
2023/05/31 07:06:37;;;;;;;9.38;2.92;;;15.90;99.90;;;;;;5069696;28;20410;-76
2023/05/31 07:09:06;;;;;;;11.10;2.97;;;16.00;99.90;;;;;;5059875;28;20043;-76
2023/05/31 07:11:32;;;;;;;9.70;2.60;;;16.00;99.90;;;;;;5069541;28;20045;-76
2023/05/31 07:14:02;;;;;;;8.77;2.65;;;16.10;99.90;;;;;;5068966;28;20052;-76
2023/05/31 07:16:31;;;;;;;8.48;2.67;;;16.20;99.90;;;;;;5024817;28;20040;-76
2023/05/31 07:18:57;;;;;;;9.00;2.65;;;16.40;99.90;;;;;;5052367;28;20528;-76
2023/05/31 07:21:22;;;;;;;11.60;2.95;;;16.50;99.90;;;;;;5053064;28;20151;-76
2023/05/31 07:23:49;;;;;;;9.10;2.70;;;16.50;99.90;;;;;;5069548;28;20406;-76
2023/05/31 07:26:15;;;;;;;9.07;2.50;;;16.60;99.90;;;;;;5043193;28;20512;-75
2023/05/31 07:28:42;;;;;;;9.73;2.80;;;16.70;99.90;;;;;;5039819;28;20057;-76
2023/05/31 07:31:09;;;;;;;7.72;2.28;;;16.80;99.90;;;;;;5032981;28;20049;-75
2023/05/31 07:33:35;;;;;;;8.82;2.60;;;16.80;99.90;;;;;;5049000;28;20036;-76
2023/05/31 07:36:01;;;;;;;9.05;2.53;;;16.90;99.90;;;;;;5017220;28;20649;-76
2023/05/31 07:38:27;;;;;;;10.13;2.85;;;17.00;99.90;;;;;;5058985;28;20036;-76
2023/05/31 07:40:53;;;;;;;9.02;2.50;;;17.20;99.90;;;;;;5068837;28;20094;-75
2023/05/31 07:43:21;;;;;;;8.98;2.40;;;17.20;99.90;;;;;;5051683;28;20040;-75
2023/05/31 07:45:48;;;;;;;10.07;2.40;;;17.30;99.90;;;;;;5050638;28;20044;-75
2023/05/31 07:48:14;;;;;;;8.60;2.35;;;17.40;99.90;;;;;;5068886;28;20051;-76
2023/05/31 07:50:39;;;;;;;9.40;2.40;;;18.40;99.90;;;;;;5068551;28;20490;-75
2023/05/31 07:53:05;;;;;;;9.32;2.55;;;17.60;99.90;;;;;;5068475;28;20032;-75
2023/05/31 07:55:31;;;;;;;12.52;2.72;;;17.60;99.90;;;;;;5051832;28;20263;-76
2023/05/31 07:57:56;;;;;;;10.23;2.55;;;17.60;99.90;;;;;;5030357;28;20045;-75
2023/05/31 08:00:23;;;;;;;10.25;2.60;;;17.60;99.90;;;;;;5049030;28;20052;-75
2023/05/31 08:02:49;;;;;;;8.90;2.63;;;17.70;99.90;;;;;;5035512;28;20036;-75
2023/05/31 08:05:15;;;;;;;7.82;2.30;;;17.80;99.90;;;;;;5055997;28;20148;-76
2023/05/31 08:07:41;;;;;;;7.40;2.15;;;17.70;99.90;;;;;;5049284;28;20041;-76
2023/05/31 08:10:07;;;;;;;7.57;2.20;;;17.80;99.90;;;;;;5048415;28;20041;-76
2023/05/31 08:12:33;;;;;;;10.27;2.60;;;17.80;99.90;;;;;;5048799;28;20447;-76
2023/05/31 08:14:58;;;;;;;9.85;2.72;;;17.80;99.90;;;;;;5031477;28;20227;-75
2023/05/31 08:17:25;;;;;;;10.20;2.40;;;17.80;99.90;;;;;;5001459;28;20467;-75
2023/05/31 08:19:51;;;;;;;9.88;3.10;;;17.90;99.90;;;;;;5057966;28;20044;-75
2023/05/31 08:22:16;;;;;;;12.30;3.33;;;18.00;99.90;;;;;;5061419;28;20041;-75
2023/05/31 08:24:42;;;;;;;12.02;3.13;;;18.10;99.90;;;;;;5035109;28;20040;-76
2023/05/31 08:27:08;;;;;;;12.13;3.15;;;18.20;99.90;;;;;;5051575;28;20145;-76
2023/05/31 08:29:34;;;;;;;10.05;3.00;;;18.30;99.90;;;;;;5034406;28;20063;-75
2023/05/31 08:32:00;;;;;;;9.70;3.13;;;18.10;99.90;;;;;;5029997;28;20037;-76
2023/05/31 08:34:27;;;;;;;8.95;2.92;;;18.00;99.90;;;;;;5031235;28;20071;-75
2023/05/31 08:36:53;;;;;;;11.15;3.30;;;18.00;99.90;;;;;;5048473;28;20045;-75
2023/05/31 08:39:18;;;;;;;9.80;3.42;;;18.10;99.90;;;;;;5031198;28;20127;-75
2023/05/31 08:42:07;;;;;;;9.82;3.58;;;18.10;99.90;;;;;;5048403;28;20068;-76
2023/05/31 08:44:33;;;;;;;11.27;3.20;;;18.00;99.90;;;;;;5042556;28;20554;-76
2023/05/31 08:47:25;;;;;;;10.25;3.40;;;17.90;99.90;;;;;;5047769;28;20129;-75
2023/05/31 08:49:52;;;;;;;14.07;3.22;;;18.20;99.90;;;;;;5031004;28;20033;-76
2023/05/31 08:52:20;;;;;;;8.60;2.53;;;18.50;99.90;;;;;;5047541;28;20048;-76
2023/05/31 08:54:47;;;;;;;12.65;2.72;;;18.50;99.90;;;;;;5047624;28;20048;-76
2023/05/31 08:57:13;;;;;;;13.68;3.03;;;18.30;99.90;;;;;;5050466;28;20056;-76
2023/05/31 08:59:39;;;;;;;11.18;3.05;;;18.50;99.90;;;;;;5034340;28;20121;-75
2023/05/31 09:02:07;;;;;;;12.57;3.40;;;18.60;99.90;;;;;;5051116;28;20075;-76
2023/05/31 09:04:33;;;;;;;15.18;3.88;;;18.80;99.90;;;;;;5028400;28;20048;-75
2023/05/31 09:07:00;;;;;;;14.73;4.35;;;18.90;99.90;;;;;;5036460;28;20037;-75
2023/05/31 09:09:26;;;;;;;12.55;3.58;;;19.10;99.90;;;;;;5030684;28;20045;-76
2023/05/31 09:11:51;;;;;;;13.10;3.38;;;19.10;99.90;;;;;;5031448;28;20095;-75
2023/05/31 09:14:17;;;;;;;15.05;3.45;;;19.00;99.90;;;;;;5049312;28;20045;-76
2023/05/31 09:16:43;;;;;;;12.57;3.88;;;18.90;99.90;;;;;;5052003;28;20051;-75
2023/05/31 09:19:09;;;;;;;11.93;3.65;;;19.00;99.90;;;;;;5014841;28;20041;-76
2023/05/31 09:21:39;;;;;;;14.80;4.43;;;19.00;99.90;;;;;;5043082;28;20403;-76
2023/05/31 09:24:05;;;;;;;15.15;3.63;;;19.10;99.90;;;;;;5049242;28;20052;-75
2023/05/31 09:26:32;;;;;;;13.10;3.67;;;19.00;99.90;;;;;;5032838;28;20116;-75
2023/05/31 09:28:59;;;;;;;20.65;4.15;;;18.80;99.90;;;;;;5032572;28;20049;-75
2023/05/31 09:31:25;;;;;;;17.65;4.03;;;18.70;99.90;;;;;;5051509;28;20151;-76
2023/05/31 09:33:53;;;;;;;13.20;4.13;;;18.70;99.90;;;;;;5050903;28;20044;-75
2023/05/31 09:36:27;;;;;;;14.65;3.92;;;18.70;99.90;;;;;;5052348;28;20060;-75
2023/05/31 09:39:03;;;;;;;12.48;3.70;;;18.70;99.90;;;;;;5034599;28;20398;-76
2023/05/31 09:41:31;;;;;;;11.38;4.10;;;18.50;99.90;;;;;;5034794;28;20174;-76
2023/05/31 09:43:57;;;;;;;14.93;4.78;;;18.50;99.90;;;;;;5033999;28;20405;-75
2023/05/31 09:46:24;;;;;;;11.68;4.15;;;18.40;99.90;;;;;;5035460;28;20036;-75
2023/05/31 09:48:57;;;;;;;11.57;4.10;;;18.30;99.90;;;;;;5043785;28;20048;-75
2023/05/31 09:51:23;;;;;;;;;;;18.20;99.90;;;;;;5051814;28;20064;-77
2023/05/31 09:53:51;;;;;;;13.70;4.30;;;18.20;99.90;;;;;;5050701;28;20408;-76
2023/05/31 09:56:21;;;;;;;11.80;4.53;;;18.10;99.90;;;;;;5040674;28;20137;-76
2023/05/31 09:58:48;;;;;;;12.85;4.50;;;18.10;99.90;;;;;;5065608;28;20116;-75
2023/05/31 10:01:15;;;;;;;12.30;4.40;;;18.10;99.90;;;;;;5034303;28;20049;-76
2023/05/31 10:03:43;;;;;;;14.65;4.72;;;18.10;99.90;;;;;;5050368;28;20049;-75
2023/05/31 10:06:09;;;;;;;11.75;4.60;;;18.20;99.90;;;;;;5050996;28;20037;-75
2023/05/31 10:08:36;;;;;;;12.95;5.32;;;17.70;99.90;;;;;;5050763;28;20506;-75
2023/05/31 10:11:02;;;;;;;12.73;5.43;;;18.30;99.90;;;;;;5050866;28;20098;-76
2023/05/31 10:13:28;;;;;;;11.90;4.68;;;18.20;99.90;;;;;;5050400;28;20036;-76
2023/05/31 10:15:56;;;;;;;12.00;4.47;;;18.10;99.90;;;;;;5034326;28;20036;-75
2023/05/31 10:18:31;;;;;;;11.55;4.32;;;18.20;99.90;;;;;;5062678;28;20039;-76
2023/05/31 10:20:57;;;;;;;12.10;5.05;;;18.30;99.90;;;;;;5070688;28;20064;-76
2023/05/31 10:23:24;;;;;;;12.30;4.57;;;18.30;99.90;;;;;;5070243;28;20079;-75
2023/05/31 10:26:17;;;;;;;13.77;5.25;;;18.30;99.90;;;;;;5070535;28;20051;-75
2023/05/31 10:28:56;;;;;;;16.02;4.80;;;18.40;99.90;;;;;;5057072;28;20064;-75
2023/05/31 10:31:43;;;;;;;12.82;4.43;;;18.50;99.90;;;;;;5050527;28;20103;-75
2023/05/31 10:34:25;;;;;;;10.13;3.92;;;18.60;99.90;;;;;;5049973;28;20048;-76
2023/05/31 10:36:52;;;;;;;11.38;4.13;;;18.70;99.90;;;;;;5033824;28;20650;-76
2023/05/31 10:39:30;;;;;;;11.95;3.92;;;18.70;99.90;;;;;;5051074;28;20048;-75
2023/05/31 10:42:09;;;;;;;13.02;4.18;;;18.70;99.90;;;;;;5050620;28;20463;-76
2023/05/31 10:44:47;;;;;;;12.73;4.10;;;18.70;99.90;;;;;;5033302;28;20411;-76
2023/05/31 10:47:15;;;;;;;12.23;4.30;;;18.80;99.90;;;;;;5050480;28;20056;-76
2023/05/31 10:49:43;;;;;;;12.57;4.25;;;18.70;99.90;;;;;;5051158;28;20445;-76
2023/05/31 10:52:09;;;;;;;16.23;4.30;;;18.80;99.90;;;;;;5033135;28;20116;-75
2023/05/31 10:54:35;;;;;;;15.70;4.90;;;18.80;99.90;;;;;;5017153;28;20142;-75
2023/05/31 10:57:05;;;;;;;13.00;4.20;;;18.80;99.90;;;;;;5054248;28;20569;-76
2023/05/31 10:59:43;;;;;;;11.15;4.18;;;18.90;99.90;;;;;;5063785;28;20036;-75
2023/05/31 11:02:11;;;;;;;12.25;4.60;;;18.90;99.90;;;;;;5033386;28;20041;-75
2023/05/31 11:04:37;;;;;;;9.68;4.07;;;18.80;99.90;;;;;;5049208;28;20040;-76
2023/05/31 11:07:22;;;;;;;12.70;4.57;;;18.90;99.90;;;;;;5032912;28;20043;-76
2023/05/31 11:09:59;;;;;;;12.38;4.88;;;18.90;99.90;;;;;;5052724;28;20051;-76
2023/05/31 11:12:51;;;;;;;13.10;4.47;;;18.90;99.90;;;;;;5053014;28;20116;-75
2023/05/31 11:15:18;;;;;;;11.47;4.33;;;18.80;99.90;;;;;;5066283;28;20048;-76
2023/05/31 11:17:54;;;;;;;14.15;5.10;;;18.90;99.90;;;;;;5036376;28;20302;-75
2023/05/31 11:20:22;;;;;;;12.27;3.90;;;18.90;99.90;;;;;;5064943;28;20041;-76
2023/05/31 11:23:08;;;;;;;14.38;4.47;;;18.90;99.90;;;;;;5033448;28;20083;-75
2023/05/31 11:25:34;;;;;;;13.52;4.13;;;18.90;99.90;;;;;;5049129;28;20586;-75
2023/05/31 11:28:07;;;;;;;12.65;4.50;;;20.00;99.90;;;;;;5059461;28;20036;-75
2023/05/31 11:30:36;;;;;;;11.77;4.50;;;18.90;99.90;;;;;;5052824;28;20045;-76
2023/05/31 11:33:03;;;;;;;12.05;3.75;;;18.90;99.90;;;;;;5069392;28;20040;-75
2023/05/31 11:35:33;;;;;;;10.85;3.70;;;18.90;99.90;;;;;;5016744;28;20083;-75
2023/05/31 11:38:01;;;;;;;9.90;3.55;;;19.00;99.90;;;;;;5034144;28;20077;-76
2023/05/31 11:40:28;;;;;;;11.93;3.78;;;19.00;99.90;;;;;;5049087;28;20091;-75
2023/05/31 11:43:02;;;;;;;11.70;3.63;;;19.10;99.90;;;;;;5049540;28;20049;-75
2023/05/31 11:45:30;;;;;;;10.98;3.90;;;19.10;99.90;;;;;;5038893;28;20045;-75
2023/05/31 11:48:29;;;;;;;13.45;4.13;;;19.10;99.90;;;;;;5057371;28;20036;-75
2023/05/31 11:50:55;;;;;;;10.65;3.38;;;19.10;99.90;;;;;;5049363;28;20037;-75
2023/05/31 11:53:21;;;;;;;10.13;3.58;;;19.00;99.90;;;;;;4999644;28;20451;-75
2023/05/31 11:55:48;;;;;;;10.20;3.58;;;19.10;99.90;;;;;;5048987;28;20120;-75
2023/05/31 11:58:14;;;;;;;10.70;3.42;;;19.10;99.90;;;;;;5064722;28;20557;-75
2023/05/31 12:00:46;;;;;;;11.52;3.80;;;19.10;99.90;;;;;;5067756;28;20501;-75
2023/05/31 12:03:16;;;;;;;11.37;3.17;;;19.10;99.90;;;;;;5040169;28;20042;-75
2023/05/31 12:05:48;;;;;;;12.63;3.47;;;19.10;99.90;;;;;;5032059;28;20129;-75
2023/05/31 12:08:14;;;;;;;15.67;4.00;;;19.00;99.90;;;;;;5048598;28;20079;-75
2023/05/31 12:10:41;;;;;;;11.18;3.40;;;19.00;99.90;;;;;;5034088;28;20689;-76
2023/05/31 12:13:07;;;;;;;10.27;3.40;;;18.90;99.90;;;;;;5048553;28;20037;-75
2023/05/31 12:15:32;;;;;;;11.02;3.50;;;18.90;99.90;;;;;;5032123;28;20048;-76
2023/05/31 12:17:59;;;;;;;14.13;3.75;;;18.90;99.90;;;;;;5048701;28;20128;-75
2023/05/31 12:20:29;;;;;;;12.43;4.40;;;18.90;99.90;;;;;;5055538;28;20036;-76
2023/05/31 12:23:12;;;;;;;10.13;3.50;;;19.00;99.90;;;;;;5038111;28;20040;-76
2023/05/31 12:25:58;;;;;;;12.18;3.72;;;18.90;99.90;;;;;;5031696;28;20102;-75
2023/05/31 12:28:24;;;;;;;12.30;4.20;;;19.00;99.90;;;;;;5047697;28;20111;-75
2023/05/31 12:30:51;;;;;;;12.15;4.20;;;19.00;99.90;;;;;;5037605;28;20041;-75
2023/05/31 12:33:17;;;;;;;11.15;3.90;;;19.10;99.90;;;;;;5048285;28;20041;-75
2023/05/31 12:35:47;;;;;;;13.77;4.40;;;19.10;99.90;;;;;;5041408;28;20040;-75
2023/05/31 12:38:13;;;;;;;11.15;4.18;;;19.10;99.90;;;;;;5047942;28;20049;-76
2023/05/31 12:40:41;;;;;;;13.15;5.05;;;19.00;99.90;;;;;;5032281;28;20115;-75
2023/05/31 12:43:07;;;;;;;11.93;4.72;;;19.10;99.90;;;;;;5047324;28;20139;-76
2023/05/31 12:45:38;;;;;;;13.48;4.63;;;19.00;99.90;;;;;;5067977;28;20124;-75